Archival Weather

Doha Intl Airport

Doha Intl Airport, Qatar (OTBD)

Report from: Thursday, September 21, 2023 4:30 PM +03
Current time: Saturday, February 24, 2024 7:22 PM +03

Current weather – Weather history – Daily summaries
Weather forecast

Temperature37.0°C (98.6°F)
Heat index44.6°C (112.2°F)
Dew point24.0°C (75.2°F)
Winds 10 kts (5.1 m/s, 11.5 mph) North-Northeast (20°)
Clouds Sky clear
Altimeter29.62 in.Hg (1003 mB)
Relative humidity48 %
Density altitude3,228 ft. (984 m)
Remarks Fully automated report
Ceiling and visibility OK
No significant changes expected in the next two hours
Flight conditions Visual Meteorological Conditions
Raw dataOTBD 211330Z AUTO 02010KT CAVOK 37/24 Q1003 NOSIG
An error has occurred. This application may no longer respond until reloaded. Reload 🗙